sensor_id;sensor_type;location;lat;lon;timestamp;pressure;altitude;pressure_sealevel;temperature;humidity
79461;BME280;68929;42.666;23.324;2023-08-21T00:01:27;94902.81;;;24.00;nan
79461;BME280;68929;42.666;23.324;2023-08-21T00:03:53;94909.94;;;24.14;nan
79461;BME280;68929;42.666;23.324;2023-08-21T00:06:18;94906.16;;;24.15;nan
79461;BME280;68929;42.666;23.324;2023-08-21T00:08:43;94899.56;;;24.21;nan
79461;BME280;68929;42.666;23.324;2023-08-21T00:11:09;94910.88;;;24.23;nan
79461;BME280;68929;42.666;23.324;2023-08-21T00:13:34;94893.72;;;24.14;nan
79461;BME280;68929;42.666;23.324;2023-08-21T00:16:00;94885.22;;;24.02;nan
79461;BME280;68929;42.666;23.324;2023-08-21T00:18:25;94900.91;;;24.05;nan
79461;BME280;68929;42.666;23.324;2023-08-21T00:20:51;94900.63;;;24.02;nan
79461;BME280;68929;42.666;23.324;2023-08-21T00:23:16;94903.03;;;24.03;nan
79461;BME280;68929;42.666;23.324;2023-08-21T00:25:46;94878.28;;;23.96;nan
79461;BME280;68929;42.666;23.324;2023-08-21T00:28:11;94895.16;;;23.88;nan
79461;BME280;68929;42.666;23.324;2023-08-21T00:30:43;94892.81;;;24.00;nan
79461;BME280;68929;42.666;23.324;2023-08-21T00:33:14;94896.97;;;23.93;nan
79461;BME280;68929;42.666;23.324;2023-08-21T00:35:40;94885.50;;;23.82;nan
79461;BME280;68929;42.666;23.324;2023-08-21T00:38:05;94883.84;;;23.86;nan
79461;BME280;68929;42.666;23.324;2023-08-21T00:40:31;94865.34;;;23.74;nan
79461;BME280;68929;42.666;23.324;2023-08-21T00:42:56;94903.09;;;23.98;nan
79461;BME280;68929;42.666;23.324;2023-08-21T00:45:21;94903.28;;;24.07;nan
79461;BME280;68929;42.666;23.324;2023-08-21T00:47:47;94882.88;;;23.96;nan
79461;BME280;68929;42.666;23.324;2023-08-21T00:50:12;94878.09;;;23.93;nan
79461;BME280;68929;42.666;23.324;2023-08-21T00:52:39;94885.94;;;23.89;nan
79461;BME280;68929;42.666;23.324;2023-08-21T00:55:06;94906.38;;;23.95;nan
79461;BME280;68929;42.666;23.324;2023-08-21T00:57:33;94895.28;;;23.78;nan
79461;BME280;68929;42.666;23.324;2023-08-21T01:00:00;94907.31;;;23.86;nan
79461;BME280;68929;42.666;23.324;2023-08-21T01:02:26;94900.22;;;23.71;nan
79461;BME280;68929;42.666;23.324;2023-08-21T01:04:51;94911.78;;;23.95;nan
79461;BME280;68929;42.666;23.324;2023-08-21T01:07:17;94910.41;;;23.74;nan
79461;BME280;68929;42.666;23.324;2023-08-21T01:10:00;94909.72;;;23.87;nan
79461;BME280;68929;42.666;23.324;2023-08-21T01:12:38;94896.66;;;23.52;nan
79461;BME280;68929;42.666;23.324;2023-08-21T01:15:07;94890.59;;;23.65;nan
79461;BME280;68929;42.666;23.324;2023-08-21T01:17:37;94913.19;;;23.69;nan
79461;BME280;68929;42.666;23.324;2023-08-21T01:20:04;94888.91;;;23.69;nan
79461;BME280;68929;42.666;23.324;2023-08-21T01:22:39;94898.09;;;23.68;nan
79461;BME280;68929;42.666;23.324;2023-08-21T01:25:06;94902.41;;;23.69;nan
79461;BME280;68929;42.666;23.324;2023-08-21T01:27:33;94893.94;;;23.57;nan
79461;BME280;68929;42.666;23.324;2023-08-21T01:30:03;94919.16;;;23.66;nan
79461;BME280;68929;42.666;23.324;2023-08-21T01:32:59;94915.38;;;23.67;nan
79461;BME280;68929;42.666;23.324;2023-08-21T01:35:26;94889.56;;;23.61;nan
79461;BME280;68929;42.666;23.324;2023-08-21T01:37:53;94894.34;;;23.64;nan
79461;BME280;68929;42.666;23.324;2023-08-21T01:40:22;94920.16;;;23.75;nan
79461;BME280;68929;42.666;23.324;2023-08-21T01:42:48;94911.78;;;23.95;nan
79461;BME280;68929;42.666;23.324;2023-08-21T01:45:14;94898.03;;;23.73;nan
79461;BME280;68929;42.666;23.324;2023-08-21T01:47:39;94907.88;;;23.82;nan
79461;BME280;68929;42.666;23.324;2023-08-21T01:50:05;94888.97;;;23.64;nan
79461;BME280;68929;42.666;23.324;2023-08-21T01:52:31;94913.19;;;23.69;nan
79461;BME280;68929;42.666;23.324;2023-08-21T01:54:56;94899.53;;;23.60;nan
79461;BME280;68929;42.666;23.324;2023-08-21T01:57:21;94908.97;;;23.63;nan
79461;BME280;68929;42.666;23.324;2023-08-21T01:59:48;94910.13;;;23.57;nan
79461;BME280;68929;42.666;23.324;2023-08-21T02:02:18;94904.47;;;23.53;nan
79461;BME280;68929;42.666;23.324;2023-08-21T02:04:44;94887.84;;;23.46;nan
79461;BME280;68929;42.666;23.324;2023-08-21T02:07:09;94894.50;;;23.54;nan
79461;BME280;68929;42.666;23.324;2023-08-21T02:09:35;94907.41;;;23.57;nan
79461;BME280;68929;42.666;23.324;2023-08-21T02:12:00;94878.50;;;23.10;nan
79461;BME280;68929;42.666;23.324;2023-08-21T02:14:25;94907.09;;;23.35;nan
79461;BME280;68929;42.666;23.324;2023-08-21T02:16:51;94896.41;;;23.25;nan
79461;BME280;68929;42.666;23.324;2023-08-21T02:19:16;94901.00;;;23.24;nan
79461;BME280;68929;42.666;23.324;2023-08-21T02:21:42;94891.94;;;23.15;nan
79461;BME280;68929;42.666;23.324;2023-08-21T02:24:07;94893.16;;;23.28;nan
79461;BME280;68929;42.666;23.324;2023-08-21T02:26:33;94907.00;;;23.45;nan
79461;BME280;68929;42.666;23.324;2023-08-21T02:28:58;94876.50;;;23.21;nan
79461;BME280;68929;42.666;23.324;2023-08-21T02:31:24;94903.41;;;23.26;nan
79461;BME280;68929;42.666;23.324;2023-08-21T02:33:49;94901.97;;;23.38;nan
79461;BME280;68929;42.666;23.324;2023-08-21T02:36:15;94902.75;;;23.39;nan
79461;BME280;68929;42.666;23.324;2023-08-21T02:38:41;94860.72;;;23.09;nan
79461;BME280;68929;42.666;23.324;2023-08-21T02:41:06;94885.50;;;23.40;nan
79461;BME280;68929;42.666;23.324;2023-08-21T02:43:32;94895.75;;;23.38;nan
79461;BME280;68929;42.666;23.324;2023-08-21T02:45:57;94892.53;;;23.36;nan
79461;BME280;68929;42.666;23.324;2023-08-21T02:48:23;94891.59;;;23.22;nan
79461;BME280;68929;42.666;23.324;2023-08-21T02:50:49;94888.38;;;23.20;nan
79461;BME280;68929;42.666;23.324;2023-08-21T02:53:14;94895.38;;;23.21;nan
79461;BME280;68929;42.666;23.324;2023-08-21T02:55:39;94874.97;;;22.86;nan
79461;BME280;68929;42.666;23.324;2023-08-21T02:58:05;94891.19;;;22.81;nan
79461;BME280;68929;42.666;23.324;2023-08-21T03:00:30;94903.69;;;23.00;nan
79461;BME280;68929;42.666;23.324;2023-08-21T03:02:55;94912.22;;;23.08;nan
79461;BME280;68929;42.666;23.324;2023-08-21T03:05:21;94911.25;;;22.98;nan
79461;BME280;68929;42.666;23.324;2023-08-21T03:07:46;94889.59;;;23.03;nan
79461;BME280;68929;42.666;23.324;2023-08-21T03:10:11;94904.09;;;23.13;nan
79461;BME280;68929;42.666;23.324;2023-08-21T03:12:37;94910.94;;;23.00;nan
79461;BME280;68929;42.666;23.324;2023-08-21T03:15:03;94923.69;;;22.61;nan
79461;BME280;68929;42.666;23.324;2023-08-21T03:17:28;94923.31;;;22.72;nan
79461;BME280;68929;42.666;23.324;2023-08-21T03:19:54;94906.91;;;22.30;nan
79461;BME280;68929;42.666;23.324;2023-08-21T03:22:19;94906.94;;;22.25;nan
79461;BME280;68929;42.666;23.324;2023-08-21T03:24:45;94922.75;;;22.37;nan
79461;BME280;68929;42.666;23.324;2023-08-21T03:27:10;94914.47;;;22.28;nan
79461;BME280;68929;42.666;23.324;2023-08-21T03:29:35;94932.25;;;22.29;nan
79461;BME280;68929;42.666;23.324;2023-08-21T03:32:01;94932.91;;;22.06;nan
79461;BME280;68929;42.666;23.324;2023-08-21T03:34:26;94931.34;;;21.95;nan
79461;BME280;68929;42.666;23.324;2023-08-21T03:36:52;94913.66;;;21.74;nan
79461;BME280;68929;42.666;23.324;2023-08-21T03:39:17;94929.34;;;21.57;nan
79461;BME280;68929;42.666;23.324;2023-08-21T03:41:42;94908.41;;;21.38;nan
79461;BME280;68929;42.666;23.324;2023-08-21T03:44:08;94929.94;;;21.43;nan
79461;BME280;68929;42.666;23.324;2023-08-21T03:46:34;94929.44;;;21.31;nan
79461;BME280;68929;42.666;23.324;2023-08-21T03:48:59;94929.16;;;21.33;nan
79461;BME280;68929;42.666;23.324;2023-08-21T03:51:25;94916.28;;;21.15;nan
79461;BME280;68929;42.666;23.324;2023-08-21T03:53:50;94907.16;;;20.96;nan
79461;BME280;68929;42.666;23.324;2023-08-21T03:56:15;94933.75;;;21.12;nan
79461;BME280;68929;42.666;23.324;2023-08-21T03:58:41;94932.69;;;21.08;nan
79461;BME280;68929;42.666;23.324;2023-08-21T04:01:06;94916.53;;;21.23;nan
79461;BME280;68929;42.666;23.324;2023-08-21T04:03:32;94916.75;;;21.42;nan
79461;BME280;68929;42.666;23.324;2023-08-21T04:05:58;94913.50;;;21.50;nan
79461;BME280;68929;42.666;23.324;2023-08-21T04:08:24;94911.38;;;21.32;nan
79461;BME280;68929;42.666;23.324;2023-08-21T04:10:50;94928.06;;;21.39;nan
79461;BME280;68929;42.666;23.324;2023-08-21T04:13:17;94931.84;;;21.38;nan
79461;BME280;68929;42.666;23.324;2023-08-21T04:15:48;94940.13;;;21.46;nan
79461;BME280;68929;42.666;23.324;2023-08-21T04:18:13;94946.06;;;21.43;nan
79461;BME280;68929;42.666;23.324;2023-08-21T04:20:39;94941.22;;;21.45;nan
79461;BME280;68929;42.666;23.324;2023-08-21T04:23:04;94935.84;;;21.40;nan
79461;BME280;68929;42.666;23.324;2023-08-21T04:25:30;94936.38;;;21.47;nan
79461;BME280;68929;42.666;23.324;2023-08-21T04:27:55;94919.16;;;21.43;nan
79461;BME280;68929;42.666;23.324;2023-08-21T04:30:21;94943.81;;;21.66;nan
79461;BME280;68929;42.666;23.324;2023-08-21T04:32:47;94935.22;;;21.64;nan
79461;BME280;68929;42.666;23.324;2023-08-21T04:35:12;94927.19;;;21.54;nan
79461;BME280;68929;42.666;23.324;2023-08-21T04:37:42;94948.97;;;21.62;nan
79461;BME280;68929;42.666;23.324;2023-08-21T04:40:08;94944.38;;;21.63;nan
79461;BME280;68929;42.666;23.324;2023-08-21T04:42:33;94928.00;;;21.54;nan
79461;BME280;68929;42.666;23.324;2023-08-21T04:45:00;94942.81;;;21.57;nan
79461;BME280;68929;42.666;23.324;2023-08-21T04:47:27;94940.13;;;21.52;nan
79461;BME280;68929;42.666;23.324;2023-08-21T04:49:54;94948.09;;;21.72;nan
79461;BME280;68929;42.666;23.324;2023-08-21T04:52:20;94953.72;;;21.80;nan
79461;BME280;68929;42.666;23.324;2023-08-21T04:54:47;94951.84;;;21.81;nan
79461;BME280;68929;42.666;23.324;2023-08-21T04:57:12;94940.56;;;21.84;nan
79461;BME280;68929;42.666;23.324;2023-08-21T04:59:38;94947.66;;;22.13;nan
79461;BME280;68929;42.666;23.324;2023-08-21T05:02:03;94947.81;;;22.32;nan
79461;BME280;68929;42.666;23.324;2023-08-21T05:04:29;94961.19;;;22.52;nan
79461;BME280;68929;42.666;23.324;2023-08-21T05:06:54;94955.34;;;22.40;nan
79461;BME280;68929;42.666;23.324;2023-08-21T05:09:19;94952.00;;;22.58;nan
79461;BME280;68929;42.666;23.324;2023-08-21T05:11:45;94971.38;;;22.55;nan
79461;BME280;68929;42.666;23.324;2023-08-21T05:14:10;94966.59;;;22.47;nan
79461;BME280;68929;42.666;23.324;2023-08-21T05:16:36;94978.09;;;22.58;nan
79461;BME280;68929;42.666;23.324;2023-08-21T05:19:01;94956.84;;;22.51;nan
79461;BME280;68929;42.666;23.324;2023-08-21T05:21:27;94969.22;;;22.62;nan
79461;BME280;68929;42.666;23.324;2023-08-21T05:23:52;94972.34;;;22.74;nan
79461;BME280;68929;42.666;23.324;2023-08-21T05:26:19;94980.25;;;22.99;nan
79461;BME280;68929;42.666;23.324;2023-08-21T05:28:44;94964.06;;;22.99;nan
79461;BME280;68929;42.666;23.324;2023-08-21T05:31:09;94968.31;;;23.05;nan
79461;BME280;68929;42.666;23.324;2023-08-21T05:33:35;94979.50;;;23.23;nan
79461;BME280;68929;42.666;23.324;2023-08-21T05:36:00;94957.41;;;23.21;nan
79461;BME280;68929;42.666;23.324;2023-08-21T05:38:26;94957.78;;;23.09;nan
79461;BME280;68929;42.666;23.324;2023-08-21T05:40:54;94963.41;;;23.13;nan
79461;BME280;68929;42.666;23.324;2023-08-21T05:43:19;94965.59;;;23.11;nan
79461;BME280;68929;42.666;23.324;2023-08-21T05:45:45;94957.53;;;23.05;nan
79461;BME280;68929;42.666;23.324;2023-08-21T05:48:10;94969.09;;;23.11;nan
79461;BME280;68929;42.666;23.324;2023-08-21T05:50:36;94970.84;;;23.26;nan
79461;BME280;68929;42.666;23.324;2023-08-21T05:53:05;94956.78;;;23.29;nan
79461;BME280;68929;42.666;23.324;2023-08-21T05:55:32;94964.16;;;23.47;nan
79461;BME280;68929;42.666;23.324;2023-08-21T05:57:57;94955.47;;;23.55;nan
79461;BME280;68929;42.666;23.324;2023-08-21T06:00:23;94954.16;;;23.52;nan
79461;BME280;68929;42.666;23.324;2023-08-21T06:02:48;94944.56;;;23.65;nan
79461;BME280;68929;42.666;23.324;2023-08-21T06:05:14;94968.56;;;23.90;nan
79461;BME280;68929;42.666;23.324;2023-08-21T06:07:39;94957.69;;;23.95;nan
79461;BME280;68929;42.666;23.324;2023-08-21T06:10:09;94963.38;;;24.17;nan
79461;BME280;68929;42.666;23.324;2023-08-21T06:12:38;94945.56;;;24.16;nan
79461;BME280;68929;42.666;23.324;2023-08-21T06:15:04;94979.75;;;24.44;nan
79461;BME280;68929;42.666;23.324;2023-08-21T06:17:29;94954.31;;;24.45;nan
79461;BME280;68929;42.666;23.324;2023-08-21T06:19:55;94978.75;;;24.78;nan
79461;BME280;68929;42.666;23.324;2023-08-21T06:22:29;94948.50;;;24.76;nan
79461;BME280;68929;42.666;23.324;2023-08-21T06:24:54;94971.44;;;24.97;nan
79461;BME280;68929;42.666;23.324;2023-08-21T06:27:20;94978.63;;;25.01;nan
79461;BME280;68929;42.666;23.324;2023-08-21T06:29:45;94972.06;;;25.07;nan
79461;BME280;68929;42.666;23.324;2023-08-21T06:32:10;94980.72;;;25.23;nan
79461;BME280;68929;42.666;23.324;2023-08-21T06:34:36;94969.00;;;25.27;nan
79461;BME280;68929;42.666;23.324;2023-08-21T06:37:02;94951.56;;;25.20;nan
79461;BME280;68929;42.666;23.324;2023-08-21T06:39:27;94971.47;;;25.43;nan
79461;BME280;68929;42.666;23.324;2023-08-21T06:41:52;94974.19;;;25.56;nan
79461;BME280;68929;42.666;23.324;2023-08-21T06:44:18;94970.28;;;25.62;nan
79461;BME280;68929;42.666;23.324;2023-08-21T06:46:43;94973.38;;;25.56;nan
79461;BME280;68929;42.666;23.324;2023-08-21T06:49:13;94982.84;;;25.85;nan
79461;BME280;68929;42.666;23.324;2023-08-21T06:51:38;94959.38;;;25.94;nan
79461;BME280;68929;42.666;23.324;2023-08-21T06:54:03;94986.16;;;26.23;nan
79461;BME280;68929;42.666;23.324;2023-08-21T06:56:29;94973.22;;;26.34;nan
79461;BME280;68929;42.666;23.324;2023-08-21T06:58:54;94986.53;;;26.44;nan
79461;BME280;68929;42.666;23.324;2023-08-21T07:01:21;94974.81;;;26.35;nan
79461;BME280;68929;42.666;23.324;2023-08-21T07:03:46;94970.34;;;26.52;nan
79461;BME280;68929;42.666;23.324;2023-08-21T07:06:12;94974.38;;;26.55;nan
79461;BME280;68929;42.666;23.324;2023-08-21T07:08:37;94969.00;;;26.77;nan
79461;BME280;68929;42.666;23.324;2023-08-21T07:11:05;94967.06;;;26.91;nan
79461;BME280;68929;42.666;23.324;2023-08-21T07:13:33;94973.81;;;27.02;nan
79461;BME280;68929;42.666;23.324;2023-08-21T07:15:58;94976.34;;;27.21;nan
79461;BME280;68929;42.666;23.324;2023-08-21T07:18:24;94962.09;;;27.37;nan
79461;BME280;68929;42.666;23.324;2023-08-21T07:20:52;94964.72;;;27.42;nan
79461;BME280;68929;42.666;23.324;2023-08-21T07:23:18;94975.38;;;27.69;nan
79461;BME280;68929;42.666;23.324;2023-08-21T07:25:44;94978.34;;;27.90;nan
79461;BME280;68929;42.666;23.324;2023-08-21T07:28:09;94979.88;;;28.05;nan
79461;BME280;68929;42.666;23.324;2023-08-21T07:30:37;94975.31;;;28.39;nan
79461;BME280;68929;42.666;23.324;2023-08-21T07:33:03;94954.06;;;28.50;nan
79461;BME280;68929;42.666;23.324;2023-08-21T07:35:29;94975.22;;;28.87;nan
79461;BME280;68929;42.666;23.324;2023-08-21T07:37:54;94976.53;;;28.98;nan
79461;BME280;68929;42.666;23.324;2023-08-21T07:40:20;94967.72;;;29.01;nan
79461;BME280;68929;42.666;23.324;2023-08-21T07:42:45;94963.06;;;29.28;nan
79461;BME280;68929;42.666;23.324;2023-08-21T07:45:10;94959.84;;;29.43;nan
79461;BME280;68929;42.666;23.324;2023-08-21T07:47:36;94977.38;;;29.71;nan
79461;BME280;68929;42.666;23.324;2023-08-21T07:50:01;94977.09;;;29.81;nan
79461;BME280;68929;42.666;23.324;2023-08-21T07:52:27;94971.69;;;30.02;nan
79461;BME280;68929;42.666;23.324;2023-08-21T07:54:53;94971.06;;;29.96;nan
79461;BME280;68929;42.666;23.324;2023-08-21T07:57:24;94940.88;;;30.10;nan
79461;BME280;68929;42.666;23.324;2023-08-21T07:59:50;94965.16;;;30.23;nan
79461;BME280;68929;42.666;23.324;2023-08-21T08:02:15;94966.38;;;30.43;nan
79461;BME280;68929;42.666;23.324;2023-08-21T08:04:42;94965.75;;;30.66;nan
79461;BME280;68929;42.666;23.324;2023-08-21T08:07:08;94960.94;;;30.63;nan
79461;BME280;68929;42.666;23.324;2023-08-21T08:09:33;94954.53;;;30.59;nan
79461;BME280;68929;42.666;23.324;2023-08-21T08:11:59;94943.97;;;30.58;nan
79461;BME280;68929;42.666;23.324;2023-08-21T08:14:24;94955.63;;;30.88;nan
79461;BME280;68929;42.666;23.324;2023-08-21T08:16:52;94956.41;;;31.09;nan
79461;BME280;68929;42.666;23.324;2023-08-21T08:19:23;94939.25;;;31.08;nan
79461;BME280;68929;42.666;23.324;2023-08-21T08:21:49;94950.00;;;31.25;nan
79461;BME280;68929;42.666;23.324;2023-08-21T08:24:24;94941.53;;;31.06;nan
79461;BME280;68929;42.666;23.324;2023-08-21T08:26:50;94957.09;;;31.06;nan
79461;BME280;68929;42.666;23.324;2023-08-21T08:29:15;94950.44;;;30.95;nan
79461;BME280;68929;42.666;23.324;2023-08-21T08:31:41;94942.84;;;31.00;nan
79461;BME280;68929;42.666;23.324;2023-08-21T08:34:06;94947.19;;;31.34;nan
79461;BME280;68929;42.666;23.324;2023-08-21T08:36:32;94940.53;;;31.43;nan
79461;BME280;68929;42.666;23.324;2023-08-21T08:38:57;94932.03;;;31.57;nan
79461;BME280;68929;42.666;23.324;2023-08-21T08:42:10;94951.63;;;31.71;nan
79461;BME280;68929;42.666;23.324;2023-08-21T08:44:17;94939.69;;;31.88;nan
79461;BME280;68929;42.666;23.324;2023-08-21T08:46:43;94928.91;;;31.91;nan
79461;BME280;68929;42.666;23.324;2023-08-21T08:49:08;94944.31;;;31.63;nan
79461;BME280;68929;42.666;23.324;2023-08-21T08:51:34;94931.38;;;31.72;nan
79461;BME280;68929;42.666;23.324;2023-08-21T08:54:00;94931.00;;;32.06;nan
79461;BME280;68929;42.666;23.324;2023-08-21T08:56:26;94932.09;;;32.17;nan
79461;BME280;68929;42.666;23.324;2023-08-21T08:58:51;94931.78;;;32.31;nan
79461;BME280;68929;42.666;23.324;2023-08-21T09:01:17;94935.88;;;32.37;nan
79461;BME280;68929;42.666;23.324;2023-08-21T09:03:42;94929.66;;;32.76;nan
79461;BME280;68929;42.666;23.324;2023-08-21T09:06:08;94919.41;;;32.61;nan
79461;BME280;68929;42.666;23.324;2023-08-21T09:08:33;94931.06;;;32.58;nan
79461;BME280;68929;42.666;23.324;2023-08-21T09:11:01;94932.53;;;32.31;nan
79461;BME280;68929;42.666;23.324;2023-08-21T09:13:33;94932.34;;;32.49;nan
79461;BME280;68929;42.666;23.324;2023-08-21T09:15:59;94931.63;;;32.64;nan
79461;BME280;68929;42.666;23.324;2023-08-21T09:18:24;94925.72;;;32.38;nan
79461;BME280;68929;42.666;23.324;2023-08-21T09:20:50;94919.31;;;32.33;nan
79461;BME280;68929;42.666;23.324;2023-08-21T09:23:16;94904.75;;;32.42;nan
79461;BME280;68929;42.666;23.324;2023-08-21T09:25:44;94912.28;;;32.84;nan
79461;BME280;68929;42.666;23.324;2023-08-21T09:28:20;94919.47;;;32.89;nan
79461;BME280;68929;42.666;23.324;2023-08-21T09:30:50;94916.94;;;33.24;nan
79461;BME280;68929;42.666;23.324;2023-08-21T09:33:20;94900.94;;;33.53;nan
79461;BME280;68929;42.666;23.324;2023-08-21T09:35:47;94905.38;;;33.73;nan
79461;BME280;68929;42.666;23.324;2023-08-21T09:38:13;94911.69;;;33.90;nan
79461;BME280;68929;42.666;23.324;2023-08-21T09:40:44;94907.44;;;33.76;nan
79461;BME280;68929;42.666;23.324;2023-08-21T09:43:16;94899.00;;;33.69;nan
79461;BME280;68929;42.666;23.324;2023-08-21T09:45:46;94909.31;;;33.45;nan
79461;BME280;68929;42.666;23.324;2023-08-21T09:48:13;94891.59;;;33.86;nan
79461;BME280;68929;42.666;23.324;2023-08-21T09:50:38;94893.72;;;34.08;nan
79461;BME280;68929;42.666;23.324;2023-08-21T09:53:06;94898.84;;;33.94;nan
79461;BME280;68929;42.666;23.324;2023-08-21T09:55:32;94897.53;;;34.19;nan
79461;BME280;68929;42.666;23.324;2023-08-21T09:57:59;94896.78;;;34.37;nan
79461;BME280;68929;42.666;23.324;2023-08-21T10:00:32;94895.38;;;34.28;nan
79461;BME280;68929;42.666;23.324;2023-08-21T10:03:06;94889.44;;;34.26;nan
79461;BME280;68929;42.666;23.324;2023-08-21T10:05:33;94865.84;;;34.56;nan
79461;BME280;68929;42.666;23.324;2023-08-21T10:08:03;94874.69;;;34.65;nan
79461;BME280;68929;42.666;23.324;2023-08-21T10:10:37;94870.69;;;34.63;nan
79461;BME280;68929;42.666;23.324;2023-08-21T10:13:04;94870.94;;;34.73;nan
79461;BME280;68929;42.666;23.324;2023-08-21T10:15:31;94878.47;;;34.26;nan
79461;BME280;68929;42.666;23.324;2023-08-21T10:17:57;94849.97;;;34.65;nan
79461;BME280;68929;42.666;23.324;2023-08-21T10:20:31;94869.56;;;35.63;nan
79461;BME280;68929;42.666;23.324;2023-08-21T10:23:01;94871.22;;;35.90;nan
79461;BME280;68929;42.666;23.324;2023-08-21T10:25:27;94866.72;;;36.27;nan
79461;BME280;68929;42.666;23.324;2023-08-21T10:27:58;94848.59;;;36.26;nan
79461;BME280;68929;42.666;23.324;2023-08-21T10:30:37;94863.00;;;37.31;nan
79461;BME280;68929;42.666;23.324;2023-08-21T10:33:05;94868.25;;;36.80;nan
79461;BME280;68929;42.666;23.324;2023-08-21T10:35:31;94858.75;;;37.37;nan
79461;BME280;68929;42.666;23.324;2023-08-21T10:38:16;94827.13;;;37.28;nan
79461;BME280;68929;42.666;23.324;2023-08-21T10:41:05;94856.16;;;37.95;nan
79461;BME280;68929;42.666;23.324;2023-08-21T10:43:39;94854.28;;;38.06;nan
79461;BME280;68929;42.666;23.324;2023-08-21T10:46:05;94847.53;;;38.62;nan
79461;BME280;68929;42.666;23.324;2023-08-21T10:48:30;94849.50;;;39.47;nan
79461;BME280;68929;42.666;23.324;2023-08-21T10:51:05;94842.06;;;39.83;nan
79461;BME280;68929;42.666;23.324;2023-08-21T10:53:31;94837.22;;;40.79;nan
79461;BME280;68929;42.666;23.324;2023-08-21T10:56:04;94831.84;;;41.40;nan
79461;BME280;68929;42.666;23.324;2023-08-21T10:58:46;94824.97;;;41.59;nan
79461;BME280;68929;42.666;23.324;2023-08-21T11:01:13;94832.56;;;39.73;nan
79461;BME280;68929;42.666;23.324;2023-08-21T11:03:40;94829.38;;;37.99;nan
79461;BME280;68929;42.666;23.324;2023-08-21T11:06:09;94841.13;;;36.82;nan
79461;BME280;68929;42.666;23.324;2023-08-21T11:08:35;94834.25;;;35.65;nan
79461;BME280;68929;42.666;23.324;2023-08-21T11:11:06;94833.59;;;36.46;nan
79461;BME280;68929;42.666;23.324;2023-08-21T11:13:32;94825.75;;;37.48;nan
79461;BME280;68929;42.666;23.324;2023-08-21T11:16:05;94812.56;;;36.64;nan
79461;BME280;68929;42.666;23.324;2023-08-21T11:18:37;94823.97;;;36.07;nan
79461;BME280;68929;42.666;23.324;2023-08-21T11:21:09;94818.41;;;34.05;nan
79461;BME280;68929;42.666;23.324;2023-08-21T11:23:37;94814.47;;;33.71;nan
79461;BME280;68929;42.666;23.324;2023-08-21T11:26:06;94809.78;;;32.70;nan
79461;BME280;68929;42.666;23.324;2023-08-21T11:28:38;94816.56;;;34.09;nan
79461;BME280;68929;42.666;23.324;2023-08-21T11:31:04;94806.47;;;36.48;nan
79461;BME280;68929;42.666;23.324;2023-08-21T11:33:31;94807.97;;;39.16;nan
79461;BME280;68929;42.666;23.324;2023-08-21T11:35:56;94813.59;;;40.14;nan
79461;BME280;68929;42.666;23.324;2023-08-21T11:38:25;94808.72;;;40.89;nan
79461;BME280;68929;42.666;23.324;2023-08-21T11:41:01;94811.41;;;42.23;nan
79461;BME280;68929;42.666;23.324;2023-08-21T11:43:41;94803.81;;;41.17;nan
79461;BME280;68929;42.666;23.324;2023-08-21T11:46:09;94813.31;;;41.20;nan
79461;BME280;68929;42.666;23.324;2023-08-21T11:48:39;94810.59;;;41.75;nan
79461;BME280;68929;42.666;23.324;2023-08-21T11:51:04;94806.41;;;42.07;nan
79461;BME280;68929;42.666;23.324;2023-08-21T11:53:41;94807.47;;;43.29;nan
79461;BME280;68929;42.666;23.324;2023-08-21T11:56:16;94808.31;;;44.52;nan
79461;BME280;68929;42.666;23.324;2023-08-21T11:58:44;94803.34;;;45.22;nan
79461;BME280;68929;42.666;23.324;2023-08-21T12:01:19;94794.16;;;43.70;nan
79461;BME280;68929;42.666;23.324;2023-08-21T12:03:45;94793.19;;;43.27;nan
79461;BME280;68929;42.666;23.324;2023-08-21T12:06:11;94782.91;;;42.56;nan
79461;BME280;68929;42.666;23.324;2023-08-21T12:08:40;94799.78;;;39.82;nan
79461;BME280;68929;42.666;23.324;2023-08-21T12:11:09;94796.97;;;39.54;nan
79461;BME280;68929;42.666;23.324;2023-08-21T12:13:38;94798.22;;;38.57;nan
79461;BME280;68929;42.666;23.324;2023-08-21T12:16:04;94782.91;;;38.77;nan
79461;BME280;68929;42.666;23.324;2023-08-21T12:18:32;94787.06;;;39.46;nan
79461;BME280;68929;42.666;23.324;2023-08-21T12:20:59;94770.31;;;40.77;nan
79461;BME280;68929;42.666;23.324;2023-08-21T12:23:25;94785.00;;;40.70;nan
79461;BME280;68929;42.666;23.324;2023-08-21T12:25:51;94785.94;;;39.82;nan
79461;BME280;68929;42.666;23.324;2023-08-21T12:28:16;94787.06;;;40.41;nan
79461;BME280;68929;42.666;23.324;2023-08-21T12:30:42;94774.06;;;41.21;nan
79461;BME280;68929;42.666;23.324;2023-08-21T12:33:07;94781.31;;;42.18;nan
79461;BME280;68929;42.666;23.324;2023-08-21T12:35:32;94771.97;;;42.35;nan
79461;BME280;68929;42.666;23.324;2023-08-21T12:37:58;94774.41;;;42.70;nan
79461;BME280;68929;42.666;23.324;2023-08-21T12:40:24;94766.97;;;42.60;nan
79461;BME280;68929;42.666;23.324;2023-08-21T12:42:50;94762.84;;;41.94;nan
79461;BME280;68929;42.666;23.324;2023-08-21T12:45:16;94756.09;;;41.43;nan
79461;BME280;68929;42.666;23.324;2023-08-21T12:47:50;94762.94;;;40.42;nan
79461;BME280;68929;42.666;23.324;2023-08-21T12:50:16;94767.91;;;40.89;nan
79461;BME280;68929;42.666;23.324;2023-08-21T12:52:42;94743.75;;;40.79;nan
79461;BME280;68929;42.666;23.324;2023-08-21T12:55:07;94758.94;;;41.88;nan
79461;BME280;68929;42.666;23.324;2023-08-21T12:57:33;94742.91;;;43.41;nan
79461;BME280;68929;42.666;23.324;2023-08-21T12:59:58;94752.84;;;42.44;nan
79461;BME280;68929;42.666;23.324;2023-08-21T13:02:24;94745.94;;;42.22;nan
79461;BME280;68929;42.666;23.324;2023-08-21T13:04:49;94746.22;;;41.90;nan
79461;BME280;68929;42.666;23.324;2023-08-21T13:07:15;94742.13;;;41.58;nan
79461;BME280;68929;42.666;23.324;2023-08-21T13:09:40;94722.22;;;42.14;nan